createdAt,value
2023-05-09T00:00:11.018Z,94.71
2023-05-09T00:02:38.660Z,94.68
2023-05-09T00:05:07.710Z,95.49
2023-05-09T00:07:36.555Z,95.81
2023-05-09T00:10:04.138Z,95.57
2023-05-09T00:12:31.957Z,95.52
2023-05-09T00:14:59.469Z,95.67
2023-05-09T00:17:28.528Z,94.77
2023-05-09T00:19:56.331Z,92.87
2023-05-09T00:22:23.842Z,92.32
2023-05-09T00:24:52.970Z,92.80
2023-05-09T00:27:20.634Z,92.56
2023-05-09T00:29:48.071Z,92.19
2023-05-09T00:32:15.635Z,92.56
2023-05-09T00:34:43.301Z,94.10
2023-05-09T00:37:10.754Z,95.29
2023-05-09T00:39:38.229Z,95.50
2023-05-09T00:42:07.144Z,96.11
2023-05-09T00:44:34.614Z,96.57
2023-05-09T00:47:02.110Z,96.47
2023-05-09T00:49:29.618Z,96.52
2023-05-09T00:51:57.234Z,96.41
2023-05-09T00:54:24.698Z,97.13
2023-05-09T00:56:52.237Z,97.01
2023-05-09T00:59:21.912Z,96.43
2023-05-09T01:01:49.452Z,97.37
2023-05-09T01:04:17.360Z,97.33
2023-05-09T01:06:49.860Z,96.86
2023-05-09T01:09:26.347Z,96.59
2023-05-09T01:12:03.232Z,96.05
2023-05-09T01:14:55.467Z,96.34
2023-05-09T01:17:32.017Z,95.76
2023-05-09T01:20:06.066Z,95.61
2023-05-09T01:22:35.919Z,96.60
2023-05-09T01:25:10.929Z,95.91
2023-05-09T01:27:45.257Z,96.75
2023-05-09T01:30:14.632Z,96.98
2023-05-09T01:32:44.136Z,97.17
2023-05-09T01:35:14.676Z,96.80
2023-05-09T01:37:44.085Z,96.42
2023-05-09T01:40:15.278Z,95.92
2023-05-09T01:42:45.055Z,95.58
2023-05-09T01:45:15.027Z,95.21
2023-05-09T01:47:43.107Z,94.74
2023-05-09T01:50:12.459Z,94.86
2023-05-09T01:52:41.152Z,95.16
2023-05-09T01:55:09.916Z,95.76
2023-05-09T01:57:38.474Z,96.92
2023-05-09T02:00:07.883Z,98.38
2023-05-09T02:02:37.153Z,98.03
2023-05-09T02:05:05.061Z,97.98
2023-05-09T02:07:33.309Z,98.57
2023-05-09T02:10:01.663Z,98.28
2023-05-09T02:12:29.301Z,98.91
2023-05-09T02:14:56.796Z,98.62
2023-05-09T02:17:24.299Z,98.95
2023-05-09T02:19:53.148Z,98.55
2023-05-09T02:22:20.648Z,97.89
2023-05-09T02:24:48.160Z,97.94
2023-05-09T02:27:15.914Z,97.82
2023-05-09T02:29:45.709Z,97.78
2023-05-09T02:32:16.468Z,98.49
2023-05-09T02:34:44.821Z,98.61
2023-05-09T02:37:14.658Z,96.59
2023-05-09T02:39:42.246Z,95.04
2023-05-09T02:42:12.227Z,95.37
2023-05-09T02:44:39.712Z,95.81
2023-05-09T02:47:08.325Z,96.66
2023-05-09T02:49:35.823Z,97.58
2023-05-09T02:52:03.334Z,98.48
2023-05-09T02:54:32.133Z,98.92
2023-05-09T02:57:00.014Z,98.73
2023-05-09T02:59:27.841Z,98.53
2023-05-09T03:01:55.423Z,98.22
2023-05-09T03:04:22.946Z,98.64
2023-05-09T03:06:50.474Z,99.40
2023-05-09T03:09:17.929Z,98.79
2023-05-09T03:11:46.723Z,98.58
2023-05-09T03:14:15.248Z,98.06
2023-05-09T03:16:42.692Z,97.96
2023-05-09T03:19:10.482Z,97.87
2023-05-09T03:21:37.937Z,97.65
2023-05-09T03:24:06.007Z,97.23
2023-05-09T03:26:35.547Z,97.28
2023-05-09T03:29:04.525Z,97.64
2023-05-09T03:31:32.154Z,96.45
2023-05-09T03:33:59.669Z,97.38
2023-05-09T03:36:27.375Z,96.71
2023-05-09T03:38:54.835Z,95.30
2023-05-09T03:41:22.396Z,95.48
2023-05-09T03:43:49.855Z,95.09
2023-05-09T03:46:18.679Z,96.69
2023-05-09T03:48:46.195Z,97.34
2023-05-09T03:51:13.714Z,96.80
2023-05-09T03:53:41.167Z,96.95
2023-05-09T03:56:08.846Z,98.01
2023-05-09T03:58:36.332Z,98.50
2023-05-09T04:01:03.818Z,98.63
2023-05-09T04:03:32.917Z,98.99
2023-05-09T04:06:00.575Z,99.23
2023-05-09T04:08:28.373Z,99.61
2023-05-09T04:10:55.863Z,99.34
2023-05-09T04:13:23.531Z,99.04
2023-05-09T04:15:51.269Z,98.82
2023-05-09T04:18:18.743Z,98.71
2023-05-09T04:20:47.595Z,98.13
2023-05-09T04:23:15.033Z,98.32
2023-05-09T04:25:42.568Z,98.55
2023-05-09T04:28:10.013Z,98.39
2023-05-09T04:30:37.609Z,98.72
2023-05-09T04:33:05.485Z,98.64
2023-05-09T04:35:32.988Z,98.71
2023-05-09T04:38:01.754Z,98.58
2023-05-09T04:40:29.322Z,98.40
2023-05-09T04:42:57.470Z,98.27
2023-05-09T04:45:24.930Z,97.76
2023-05-09T04:47:52.506Z,97.49
2023-05-09T04:50:20.121Z,98.00
2023-05-09T04:52:47.571Z,98.07
2023-05-09T04:55:16.672Z,97.87
2023-05-09T04:57:44.210Z,97.64
2023-05-09T05:00:12.837Z,98.01
2023-05-09T05:02:40.403Z,97.66
2023-05-09T05:05:12.037Z,97.64
2023-05-09T05:07:40.448Z,97.61
2023-05-09T05:10:09.026Z,97.13
2023-05-09T05:12:37.878Z,97.01
2023-05-09T05:15:06.812Z,96.44
2023-05-09T05:17:34.276Z,96.23
2023-05-09T05:20:01.794Z,96.02
2023-05-09T05:22:31.546Z,95.95
2023-05-09T05:25:00.135Z,96.54
2023-05-09T05:27:27.638Z,96.04
2023-05-09T05:29:56.418Z,94.80
2023-05-09T05:32:23.984Z,94.24
2023-05-09T05:34:51.541Z,92.63
2023-05-09T05:37:19.056Z,90.58
2023-05-09T05:39:46.518Z,88.79
2023-05-09T05:42:13.980Z,88.25
2023-05-09T05:44:41.478Z,87.59
2023-05-09T05:47:10.436Z,86.38
2023-05-09T05:49:37.909Z,85.62
2023-05-09T05:52:05.660Z,85.81
2023-05-09T05:54:33.133Z,86.09
2023-05-09T05:57:00.567Z,84.38
2023-05-09T05:59:28.013Z,85.06
2023-05-09T06:01:55.452Z,85.97
2023-05-09T06:04:24.222Z,85.06
2023-05-09T06:06:51.711Z,85.33
2023-05-09T06:09:19.448Z,83.44
2023-05-09T06:11:46.899Z,83.51
2023-05-09T06:14:14.355Z,84.83
2023-05-09T06:16:41.848Z,83.79
2023-05-09T06:19:09.371Z,82.85
2023-05-09T06:21:38.210Z,81.42
2023-05-09T06:24:11.764Z,81.40
2023-05-09T06:26:44.688Z,81.54
2023-05-09T06:29:14.146Z,82.07
2023-05-09T06:31:41.656Z,81.24
2023-05-09T06:34:09.280Z,81.17
2023-05-09T06:36:38.094Z,82.04
2023-05-09T06:39:05.559Z,81.53
2023-05-09T06:41:33.019Z,80.50
2023-05-09T06:44:02.357Z,81.58
2023-05-09T06:46:29.853Z,80.46
2023-05-09T06:48:57.294Z,79.76
2023-05-09T06:51:24.743Z,79.89
2023-05-09T06:53:53.521Z,81.23
2023-05-09T06:56:22.633Z,79.64
2023-05-09T06:58:50.199Z,81.02
2023-05-09T07:01:17.947Z,81.55
2023-05-09T07:03:46.916Z,78.53
2023-05-09T07:06:14.591Z,78.90
2023-05-09T07:08:42.046Z,78.97
2023-05-09T07:11:10.834Z,76.65
2023-05-09T07:13:38.433Z,76.45
2023-05-09T07:16:06.763Z,74.51
2023-05-09T07:18:34.340Z,74.71
2023-05-09T07:21:01.774Z,76.04
2023-05-09T07:23:29.242Z,77.54
2023-05-09T07:25:58.101Z,76.82
2023-05-09T07:28:26.942Z,77.70
2023-05-09T07:30:56.501Z,77.15
2023-05-09T07:33:23.985Z,77.66
2023-05-09T07:35:52.863Z,77.66
2023-05-09T07:38:20.331Z,77.56
2023-05-09T07:40:48.038Z,77.88
2023-05-09T07:43:15.608Z,78.25
2023-05-09T07:45:44.654Z,77.90
2023-05-09T07:48:12.489Z,78.95
2023-05-09T07:50:40.653Z,78.40
2023-05-09T07:53:08.137Z,80.16
2023-05-09T07:55:36.317Z,80.60
2023-05-09T07:58:03.804Z,81.72
2023-05-09T08:00:31.322Z,82.23
2023-05-09T08:03:00.806Z,81.32
2023-05-09T08:05:28.549Z,82.25
2023-05-09T08:07:55.998Z,83.27
2023-05-09T08:10:23.850Z,82.01
2023-05-09T08:12:51.462Z,82.71
2023-05-09T08:15:19.080Z,82.81
2023-05-09T08:17:46.556Z,82.54
2023-05-09T08:20:15.395Z,83.84
2023-05-09T08:22:42.928Z,82.54
2023-05-09T08:25:10.845Z,82.23
2023-05-09T08:27:38.390Z,81.39
2023-05-09T08:30:07.329Z,81.50
2023-05-09T08:32:34.795Z,81.05
2023-05-09T08:35:02.296Z,80.97
2023-05-09T08:37:31.086Z,81.63
2023-05-09T08:39:58.563Z,81.42
2023-05-09T08:42:26.968Z,80.10
2023-05-09T08:44:54.427Z,80.80
2023-05-09T08:47:22.468Z,79.50
2023-05-09T08:49:51.259Z,76.56
2023-05-09T08:52:19.157Z,77.58
2023-05-09T08:54:48.053Z,76.94
2023-05-09T08:57:16.216Z,77.17
2023-05-09T08:59:43.692Z,78.41
2023-05-09T09:02:14.420Z,78.18
2023-05-09T09:04:42.058Z,79.14
2023-05-09T09:07:10.097Z,79.32
2023-05-09T09:09:38.293Z,80.22
2023-05-09T09:12:09.605Z,80.47
2023-05-09T09:14:39.379Z,79.90
2023-05-09T09:17:08.087Z,77.96
2023-05-09T09:19:36.659Z,77.87
2023-05-09T09:22:05.496Z,78.88
2023-05-09T09:24:33.205Z,78.08
2023-05-09T09:27:06.128Z,78.72
2023-05-09T09:29:35.645Z,77.40
2023-05-09T09:32:04.652Z,77.71
2023-05-09T09:34:32.206Z,78.58
2023-05-09T09:36:59.965Z,78.54
2023-05-09T09:39:27.502Z,77.19
2023-05-09T09:41:54.932Z,78.71
2023-05-09T09:44:23.626Z,78.32
2023-05-09T09:46:54.000Z,77.71
2023-05-09T09:49:23.301Z,77.56
2023-05-09T09:51:51.601Z,75.68
2023-05-09T09:54:20.568Z,76.06
2023-05-09T09:56:48.876Z,75.54
2023-05-09T09:59:18.301Z,76.37
2023-05-09T10:02:08.558Z,75.93
2023-05-09T10:04:37.354Z,77.89
2023-05-09T10:07:06.209Z,76.53
2023-05-09T10:09:35.146Z,76.25
2023-05-09T10:12:04.413Z,76.24
2023-05-09T10:14:35.114Z,75.63
2023-05-09T10:17:04.600Z,72.77
2023-05-09T10:19:33.994Z,72.63
2023-05-09T10:22:05.059Z,73.47
2023-05-09T10:24:36.661Z,71.62
2023-05-09T10:27:05.499Z,70.83
2023-05-09T10:29:36.698Z,69.53
2023-05-09T10:32:14.266Z,71.52
2023-05-09T10:34:45.470Z,69.33
2023-05-09T10:37:13.402Z,67.76
2023-05-09T10:39:41.516Z,70.47
2023-05-09T10:42:09.791Z,70.39
2023-05-09T10:44:38.433Z,70.98
2023-05-09T10:47:06.393Z,68.33
2023-05-09T10:49:36.348Z,70.09
2023-05-09T10:52:06.126Z,70.22
2023-05-09T10:54:33.683Z,70.95
2023-05-09T10:57:01.382Z,69.47
2023-05-09T10:59:37.664Z,70.17
2023-05-09T11:02:05.888Z,69.87
2023-05-09T11:04:33.678Z,69.42
2023-05-09T11:07:01.589Z,68.57
2023-05-09T11:09:35.425Z,68.58
2023-05-09T11:12:09.757Z,66.97
2023-05-09T11:14:42.402Z,67.24
2023-05-09T11:17:11.394Z,68.95
2023-05-09T11:19:59.236Z,69.02
2023-05-09T11:22:27.993Z,67.22
2023-05-09T11:25:04.549Z,69.73
2023-05-09T11:27:39.207Z,71.35
2023-05-09T11:30:08.827Z,76.40
2023-05-09T11:32:43.162Z,79.07
2023-05-09T11:35:12.480Z,80.64
2023-05-09T11:37:48.214Z,82.99
2023-05-09T11:40:18.263Z,86.26
2023-05-09T11:42:49.252Z,84.73
2023-05-09T11:45:17.885Z,84.45
2023-05-09T11:47:46.360Z,86.11
2023-05-09T11:50:15.073Z,88.08
2023-05-09T11:52:43.303Z,87.77
2023-05-09T11:55:13.017Z,86.67
2023-05-09T11:57:42.520Z,87.70
2023-05-09T12:00:11.568Z,89.27
2023-05-09T12:02:39.351Z,89.49
2023-05-09T12:05:11.267Z,90.00
2023-05-09T12:07:39.532Z,89.51
2023-05-09T12:10:09.013Z,89.34
2023-05-09T12:12:36.857Z,89.28
2023-05-09T12:15:08.582Z,89.35
2023-05-09T12:17:36.281Z,89.01
2023-05-09T12:20:05.782Z,85.66
2023-05-09T12:22:33.868Z,83.81
2023-05-09T12:25:03.804Z,83.87
2023-05-09T12:27:32.938Z,81.56
2023-05-09T12:30:01.411Z,78.18
2023-05-09T12:32:32.837Z,79.91
2023-05-09T12:35:01.420Z,79.74
2023-05-09T12:37:32.446Z,80.57
2023-05-09T12:40:04.690Z,79.75
2023-05-09T12:42:32.294Z,81.70
2023-05-09T12:44:59.985Z,81.78
2023-05-09T12:47:28.732Z,81.41
2023-05-09T12:49:59.806Z,81.09
2023-05-09T12:52:33.940Z,82.56
2023-05-09T12:55:06.720Z,83.46
2023-05-09T12:57:34.241Z,84.14
2023-05-09T13:00:03.844Z,84.99
2023-05-09T13:02:35.478Z,85.37
2023-05-09T13:05:10.218Z,86.42
2023-05-09T13:07:41.395Z,86.82
2023-05-09T13:10:12.846Z,89.22
2023-05-09T13:12:40.468Z,89.80
2023-05-09T13:15:09.896Z,89.96
2023-05-09T13:17:37.463Z,90.86
2023-05-09T13:20:05.541Z,92.63
2023-05-09T13:22:34.480Z,93.61
2023-05-09T13:25:02.009Z,93.79
2023-05-09T13:27:29.635Z,91.77
2023-05-09T13:29:57.177Z,91.84
2023-05-09T13:32:25.427Z,93.75
2023-05-09T13:34:53.237Z,92.53
2023-05-09T13:37:21.600Z,90.68
2023-05-09T13:39:50.438Z,91.15
2023-05-09T13:42:19.184Z,90.24
2023-05-09T13:44:46.835Z,87.16
2023-05-09T13:47:14.276Z,85.67
2023-05-09T13:49:41.731Z,86.09
2023-05-09T13:52:09.221Z,84.94
2023-05-09T13:54:37.029Z,83.23
2023-05-09T13:57:06.255Z,82.85
2023-05-09T13:59:33.702Z,84.17
2023-05-09T14:02:01.776Z,82.03
2023-05-09T14:04:30.042Z,82.08
2023-05-09T14:06:57.595Z,84.64
2023-05-09T14:09:26.180Z,83.44
2023-05-09T14:11:55.425Z,83.49
2023-05-09T14:14:25.406Z,83.62
2023-05-09T14:16:53.902Z,86.47
2023-05-09T14:19:21.430Z,83.25
2023-05-09T14:21:48.957Z,83.64
2023-05-09T14:24:16.688Z,85.16
2023-05-09T14:26:44.995Z,86.61
2023-05-09T14:29:12.481Z,86.02
2023-05-09T14:31:41.398Z,85.00
2023-05-09T14:34:09.280Z,85.18
2023-05-09T14:36:37.405Z,84.53
2023-05-09T14:39:05.361Z,81.93
2023-05-09T14:41:32.840Z,81.03
2023-05-09T14:44:00.314Z,83.93
2023-05-09T14:46:27.917Z,83.58
2023-05-09T14:49:02.125Z,83.79
2023-05-09T14:51:29.585Z,84.15
2023-05-09T14:53:57.048Z,85.06
2023-05-09T14:56:24.532Z,85.82
2023-05-09T14:58:51.986Z,86.26
2023-05-09T15:01:19.665Z,87.55
2023-05-09T15:03:48.040Z,90.00
2023-05-09T15:06:16.909Z,91.96
2023-05-09T15:08:44.384Z,93.13
2023-05-09T15:11:11.875Z,93.60
2023-05-09T15:13:39.376Z,93.79
2023-05-09T15:16:07.030Z,93.90
2023-05-09T15:18:34.631Z,94.64
2023-05-09T15:21:02.156Z,95.28
2023-05-09T15:23:31.024Z,94.97
2023-05-09T15:25:58.616Z,95.07
2023-05-09T15:28:26.392Z,95.91
2023-05-09T15:30:54.123Z,96.11
2023-05-09T15:33:21.686Z,96.37
2023-05-09T15:35:50.085Z,98.54
2023-05-09T15:38:18.027Z,99.24
2023-05-09T15:40:46.817Z,100.00
2023-05-09T15:43:14.276Z,99.84
2023-05-09T15:45:45.441Z,98.45
2023-05-09T15:48:13.327Z,95.43
2023-05-09T15:50:41.065Z,94.29
2023-05-09T15:53:08.522Z,92.38
2023-05-09T15:55:36.317Z,90.10
2023-05-09T15:58:05.106Z,88.39
2023-05-09T16:00:32.854Z,88.04
2023-05-09T16:03:00.408Z,88.40
2023-05-09T16:05:28.000Z,94.00
2023-05-09T16:07:55.524Z,95.27
2023-05-09T16:10:22.982Z,96.80
2023-05-09T16:12:50.501Z,97.20
2023-05-09T16:15:19.548Z,96.82
2023-05-09T16:17:47.036Z,97.08
2023-05-09T16:20:15.098Z,96.29
2023-05-09T16:22:42.942Z,95.51
2023-05-09T16:25:11.151Z,96.47
2023-05-09T16:27:38.644Z,97.26
2023-05-09T16:30:07.651Z,97.49
2023-05-09T16:32:36.817Z,98.54
2023-05-09T16:35:04.564Z,98.21
2023-05-09T16:37:33.513Z,96.74
2023-05-09T16:40:04.277Z,95.82
2023-05-09T16:42:31.807Z,96.30
2023-05-09T16:44:59.253Z,96.43
2023-05-09T16:47:26.781Z,96.69
2023-05-09T16:49:55.649Z,97.43
2023-05-09T16:52:23.849Z,97.67
2023-05-09T16:54:52.228Z,97.10
2023-05-09T16:57:19.673Z,98.34
2023-05-09T16:59:47.299Z,98.16
2023-05-09T17:02:14.760Z,97.13
2023-05-09T17:04:42.297Z,96.68
2023-05-09T17:07:12.606Z,97.45
2023-05-09T17:09:40.203Z,95.71
2023-05-09T17:12:08.068Z,95.80
2023-05-09T17:14:35.621Z,96.71
2023-05-09T17:17:03.157Z,98.98
2023-05-09T17:19:32.586Z,99.83
2023-05-09T17:22:04.138Z,98.03
2023-05-09T17:24:33.108Z,95.55
2023-05-09T17:27:01.205Z,93.08
2023-05-09T17:29:29.100Z,92.68
2023-05-09T17:31:57.441Z,91.53
2023-05-09T17:34:25.272Z,90.72
2023-05-09T17:36:52.762Z,92.47
2023-05-09T17:39:20.465Z,93.94
2023-05-09T17:41:49.317Z,95.25
2023-05-09T17:44:16.884Z,95.51
2023-05-09T17:46:44.412Z,95.72
2023-05-09T17:49:13.839Z,93.72
2023-05-09T17:51:41.389Z,92.59
2023-05-09T17:54:09.049Z,91.25
2023-05-09T17:56:36.527Z,91.19
2023-05-09T17:59:05.436Z,93.77
2023-05-09T18:01:33.000Z,96.94
2023-05-09T18:04:00.650Z,97.67
2023-05-09T18:06:28.898Z,97.50
2023-05-09T18:08:56.487Z,97.26
2023-05-09T18:11:24.525Z,96.73
2023-05-09T18:13:51.993Z,97.00
2023-05-09T18:16:20.864Z,98.35
2023-05-09T18:18:48.407Z,98.83
2023-05-09T18:21:15.895Z,97.91
2023-05-09T18:23:43.337Z,98.68
2023-05-09T18:26:10.815Z,97.43
2023-05-09T18:28:40.076Z,97.20
2023-05-09T18:31:10.021Z,99.11
2023-05-09T18:33:39.068Z,99.60
2023-05-09T18:36:08.791Z,100.00
2023-05-09T18:38:38.254Z,100.00
2023-05-09T18:41:07.039Z,100.00
2023-05-09T18:43:35.032Z,100.00
2023-05-09T18:46:03.160Z,100.00
2023-05-09T18:52:00.242Z,100.00
2023-05-09T18:54:27.678Z,100.00
2023-05-09T18:56:55.102Z,100.00
2023-05-09T18:59:23.447Z,100.00
2023-05-09T19:01:51.039Z,100.00
2023-05-09T19:04:19.450Z,100.00
2023-05-09T19:06:47.179Z,100.00
2023-05-09T19:09:16.542Z,100.00
2023-05-09T19:11:44.027Z,100.00
2023-05-09T19:14:11.491Z,100.00
2023-05-09T19:16:39.004Z,100.00
2023-05-09T19:19:06.489Z,100.00
2023-05-09T19:21:35.426Z,100.00
2023-05-09T19:24:04.617Z,100.00
2023-05-09T19:26:33.493Z,100.00
2023-05-09T19:29:04.074Z,100.00
2023-05-09T19:31:31.707Z,100.00
2023-05-09T19:33:59.645Z,100.00
2023-05-09T19:36:27.198Z,100.00
2023-05-09T19:38:54.623Z,100.00
2023-05-09T19:41:22.417Z,100.00
2023-05-09T19:43:51.576Z,100.00
2023-05-09T19:46:19.241Z,100.00
2023-05-09T19:48:46.775Z,100.00
2023-05-09T19:51:15.370Z,100.00
2023-05-09T19:53:42.922Z,100.00
2023-05-09T19:56:10.435Z,100.00
2023-05-09T19:58:37.904Z,100.00
2023-05-09T20:01:07.249Z,100.00
2023-05-09T20:03:35.066Z,100.00
2023-05-09T20:06:02.634Z,100.00
2023-05-09T20:08:30.765Z,100.00
2023-05-09T20:10:59.902Z,100.00
2023-05-09T20:13:27.795Z,100.00
2023-05-09T20:15:55.385Z,100.00
2023-05-09T20:18:24.225Z,100.00
2023-05-09T20:20:51.813Z,100.00
2023-05-09T20:23:19.332Z,100.00
2023-05-09T20:25:46.797Z,100.00
2023-05-09T20:28:19.512Z,100.00
2023-05-09T20:30:47.012Z,100.00
2023-05-09T20:33:14.467Z,100.00
2023-05-09T20:35:43.801Z,100.00
2023-05-09T20:38:11.295Z,100.00
2023-05-09T20:40:39.193Z,100.00
2023-05-09T20:43:06.648Z,100.00
2023-05-09T20:45:34.240Z,100.00
2023-05-09T20:48:03.912Z,100.00
2023-05-09T20:50:31.443Z,100.00
2023-05-09T20:53:00.259Z,100.00
2023-05-09T20:55:27.780Z,100.00
2023-05-09T20:57:55.326Z,100.00
2023-05-09T21:00:22.776Z,100.00
2023-05-09T21:02:51.446Z,100.00
2023-05-09T21:05:18.971Z,100.00
2023-05-09T21:07:46.444Z,100.00
2023-05-09T21:10:15.780Z,100.00
2023-05-09T21:12:43.555Z,100.00
2023-05-09T21:15:11.776Z,100.00
2023-05-09T21:17:39.261Z,100.00
2023-05-09T21:20:08.432Z,100.00
2023-05-09T21:22:35.981Z,100.00
2023-05-09T21:25:03.455Z,100.00
2023-05-09T21:27:32.326Z,100.00
2023-05-09T21:29:59.902Z,100.00
2023-05-09T21:32:28.439Z,100.00
2023-05-09T21:34:55.918Z,100.00
2023-05-09T21:37:23.463Z,100.00
2023-05-09T21:39:50.959Z,100.00
2023-05-09T21:42:18.413Z,100.00
2023-05-09T21:44:47.201Z,100.00
2023-05-09T21:47:14.749Z,100.00
2023-05-09T21:49:42.257Z,100.00
2023-05-09T21:52:09.935Z,100.00
2023-05-09T21:54:37.430Z,100.00
2023-05-09T21:57:04.936Z,100.00
2023-05-09T21:59:32.829Z,100.00
2023-05-09T22:02:01.677Z,100.00
2023-05-09T22:04:29.215Z,100.00
2023-05-09T22:06:56.705Z,100.00
2023-05-09T22:09:24.359Z,100.00
2023-05-09T22:11:52.926Z,100.00
2023-05-09T22:14:20.375Z,100.00
2023-05-09T22:16:47.891Z,100.00
2023-05-09T22:19:17.367Z,100.00
2023-05-09T22:21:45.136Z,100.00
2023-05-09T22:24:13.007Z,100.00
2023-05-09T22:26:40.493Z,100.00
2023-05-09T22:29:07.961Z,100.00
2023-05-09T22:31:35.837Z,100.00
2023-05-09T22:34:03.537Z,100.00
2023-05-09T22:36:33.225Z,100.00
2023-05-09T22:39:00.780Z,100.00
2023-05-09T22:41:28.414Z,100.00
2023-05-09T22:43:55.870Z,100.00
2023-05-09T22:46:23.444Z,100.00
2023-05-09T22:48:50.962Z,100.00
2023-05-09T22:51:18.431Z,100.00
2023-05-09T22:53:47.213Z,100.00
2023-05-09T22:56:14.697Z,100.00
2023-05-09T22:58:42.136Z,100.00
2023-05-09T23:01:09.616Z,100.00
2023-05-09T23:03:37.185Z,100.00
2023-05-09T23:06:04.993Z,100.00
2023-05-09T23:08:32.455Z,100.00
2023-05-09T23:11:01.241Z,100.00
2023-05-09T23:13:28.797Z,100.00
2023-05-09T23:15:56.372Z,100.00
2023-05-09T23:18:23.904Z,100.00
2023-05-09T23:20:51.591Z,100.00
2023-05-09T23:23:19.066Z,100.00
2023-05-09T23:25:46.520Z,100.00
2023-05-09T23:28:15.460Z,100.00
2023-05-09T23:30:42.939Z,100.00
2023-05-09T23:33:10.467Z,100.00
2023-05-09T23:35:37.916Z,100.00
2023-05-09T23:38:05.405Z,100.00
2023-05-09T23:40:32.857Z,100.00
2023-05-09T23:43:00.302Z,100.00
2023-05-09T23:45:29.111Z,100.00
2023-05-09T23:47:57.030Z,100.00
2023-05-09T23:50:24.530Z,100.00
2023-05-09T23:52:51.997Z,100.00
2023-05-09T23:55:19.504Z,100.00
2023-05-09T23:57:47.023Z,100.00
